createdAt,value
2023-03-06T00:01:31.152Z,2.00
2023-03-06T00:06:52.086Z,1.94
2023-03-06T00:12:12.900Z,1.87
2023-03-06T00:17:33.772Z,1.85
2023-03-06T00:22:56.055Z,1.82
2023-03-06T00:28:17.980Z,1.77
2023-03-06T00:33:38.625Z,1.79
2023-03-06T00:38:59.356Z,1.75
2023-03-06T00:44:20.277Z,1.79
2023-03-06T00:49:41.540Z,1.78
2023-03-06T00:55:02.650Z,1.73
2023-03-06T01:00:23.554Z,1.71
2023-03-06T01:05:44.285Z,1.66
2023-03-06T01:11:06.075Z,1.70
2023-03-06T01:16:26.936Z,1.71
2023-03-06T01:21:47.730Z,1.75
2023-03-06T01:27:08.429Z,1.72
2023-03-06T01:32:29.059Z,1.78
2023-03-06T01:37:49.823Z,1.81
2023-03-06T01:43:31.735Z,1.82
2023-03-06T01:48:58.235Z,1.81
2023-03-06T01:54:27.255Z,1.77
2023-03-06T01:59:48.777Z,1.69
2023-03-06T02:05:09.986Z,1.60
2023-03-06T02:10:31.028Z,1.54
2023-03-06T02:15:51.679Z,1.52
2023-03-06T02:21:20.346Z,1.52
2023-03-06T02:26:41.278Z,1.50
2023-03-06T02:32:02.538Z,1.50
2023-03-06T02:37:24.470Z,1.47
2023-03-06T02:42:49.946Z,1.42
2023-03-06T02:48:12.707Z,1.40
2023-03-06T02:53:33.429Z,1.41
2023-03-06T02:58:54.172Z,1.46
2023-03-06T03:04:15.397Z,1.46
2023-03-06T03:09:37.318Z,1.44
2023-03-06T03:14:59.988Z,1.37
2023-03-06T03:20:22.390Z,1.31
2023-03-06T03:25:44.358Z,1.29
2023-03-06T03:31:06.477Z,1.25
2023-03-06T03:36:28.612Z,1.23
2023-03-06T03:41:49.841Z,1.13
2023-03-06T03:47:10.895Z,1.05
2023-03-06T03:52:32.093Z,0.99
2023-03-06T03:57:53.364Z,0.91
2023-03-06T04:03:14.090Z,0.90
2023-03-06T04:08:38.516Z,0.82
2023-03-06T04:13:59.746Z,0.81
2023-03-06T04:19:20.369Z,0.77
2023-03-06T04:24:41.083Z,0.76
2023-03-06T04:30:02.954Z,0.74
2023-03-06T04:35:25.211Z,0.68
2023-03-06T04:40:52.648Z,0.66
2023-03-06T04:46:13.364Z,0.63
2023-03-06T04:51:37.752Z,0.61
2023-03-06T04:56:58.901Z,0.61
2023-03-06T05:02:20.726Z,0.56
2023-03-06T05:07:41.754Z,0.61
2023-03-06T05:13:02.727Z,0.63
2023-03-06T05:18:23.818Z,0.65
2023-03-06T05:23:44.841Z,0.63
2023-03-06T05:29:05.638Z,0.67
2023-03-06T05:34:26.475Z,0.73
2023-03-06T05:39:47.372Z,0.80
2023-03-06T05:45:08.878Z,0.91
2023-03-06T05:50:30.173Z,1.04
2023-03-06T05:55:57.445Z,1.19
2023-03-06T06:01:19.360Z,1.37
2023-03-06T06:06:40.268Z,1.55
2023-03-06T06:12:02.655Z,1.73
2023-03-06T06:17:23.570Z,2.22
2023-03-06T06:22:44.572Z,2.22
2023-03-06T06:28:05.757Z,2.23
2023-03-06T06:33:26.729Z,2.31
2023-03-06T06:38:47.871Z,2.45
2023-03-06T06:44:11.256Z,2.66
2023-03-06T06:49:32.778Z,3.02
2023-03-06T06:54:53.604Z,3.93
2023-03-06T07:00:15.258Z,5.06
2023-03-06T07:05:35.715Z,4.56
2023-03-06T07:10:57.051Z,4.27
2023-03-06T07:16:18.168Z,4.21
2023-03-06T07:21:39.295Z,4.07
2023-03-06T07:27:00.324Z,3.93
2023-03-06T07:32:21.391Z,3.88
2023-03-06T07:37:42.863Z,3.88
2023-03-06T07:43:18.386Z,3.93
2023-03-06T07:48:47.413Z,3.96
2023-03-06T07:54:08.419Z,3.81
2023-03-06T07:59:29.112Z,3.80
2023-03-06T08:04:53.684Z,3.84
2023-03-06T08:10:15.038Z,3.80
2023-03-06T08:15:35.781Z,3.79
2023-03-06T08:21:06.359Z,3.74
2023-03-06T08:26:29.164Z,3.61
2023-03-06T08:31:50.035Z,3.88
2023-03-06T08:37:10.885Z,4.26
2023-03-06T08:42:32.218Z,4.48
2023-03-06T08:47:53.047Z,4.66
2023-03-06T08:53:13.946Z,4.96
2023-03-06T08:58:34.994Z,5.42
2023-03-06T09:03:57.719Z,5.69
2023-03-06T09:09:18.921Z,6.28
2023-03-06T09:14:40.000Z,6.86
2023-03-06T09:20:00.713Z,7.37
2023-03-06T09:25:23.309Z,7.91
2023-03-06T09:30:44.030Z,8.35
2023-03-06T09:36:05.710Z,9.51
2023-03-06T09:41:31.069Z,10.08
2023-03-06T09:47:00.977Z,9.18
2023-03-06T09:52:33.938Z,7.74
2023-03-06T09:57:56.191Z,6.92
2023-03-06T10:03:39.713Z,6.89
2023-03-06T10:09:41.487Z,6.88
2023-03-06T10:15:07.291Z,6.74
2023-03-06T10:20:49.702Z,6.50
2023-03-06T10:26:15.717Z,6.57
2023-03-06T10:31:36.427Z,6.95
2023-03-06T10:36:58.631Z,8.38
2023-03-06T10:42:19.471Z,9.58
2023-03-06T10:47:40.410Z,10.01
2023-03-06T10:53:10.757Z,10.20
2023-03-06T10:58:32.571Z,9.58
2023-03-06T11:03:54.222Z,10.47
2023-03-06T11:09:16.158Z,10.63
2023-03-06T11:14:37.045Z,10.64
2023-03-06T11:20:17.678Z,10.48
2023-03-06T11:25:43.910Z,9.32
2023-03-06T11:31:18.582Z,8.75
2023-03-06T11:36:48.028Z,8.87
2023-03-06T11:42:42.967Z,9.16
2023-03-06T11:48:13.937Z,9.58
2023-03-06T11:53:39.197Z,9.58
2023-03-06T11:59:18.845Z,10.12
2023-03-06T12:05:07.244Z,10.26
2023-03-06T12:10:31.782Z,10.04
2023-03-06T12:16:04.790Z,10.01
2023-03-06T12:21:37.759Z,10.03
2023-03-06T12:27:24.859Z,10.29
2023-03-06T12:33:10.418Z,10.13
2023-03-06T12:38:44.148Z,9.99
2023-03-06T12:44:26.368Z,9.87
2023-03-06T12:50:17.218Z,9.97
2023-03-06T12:55:46.301Z,9.80
2023-03-06T13:01:28.693Z,9.39
2023-03-06T13:07:04.639Z,9.62
2023-03-06T13:12:47.203Z,9.61
2023-03-06T13:18:23.390Z,9.41
2023-03-06T13:23:48.470Z,9.18
2023-03-06T13:29:36.966Z,9.04
2023-03-06T13:34:58.259Z,8.88
2023-03-06T13:40:27.283Z,8.79
2023-03-06T13:45:48.189Z,9.03
2023-03-06T13:51:23.048Z,9.17
2023-03-06T13:56:49.972Z,9.20
2023-03-06T14:02:37.201Z,8.99
2023-03-06T14:08:07.833Z,8.57
2023-03-06T14:13:41.845Z,8.57
2023-03-06T14:19:15.678Z,8.59
2023-03-06T14:24:38.330Z,8.25
2023-03-06T14:30:07.328Z,7.98
2023-03-06T14:35:32.338Z,7.96
2023-03-06T14:40:53.843Z,7.97
2023-03-06T14:46:19.977Z,7.84
2023-03-06T14:51:46.062Z,7.72
2023-03-06T14:57:08.985Z,7.45
2023-03-06T15:02:33.023Z,7.02
2023-03-06T15:07:55.308Z,6.65
2023-03-06T15:13:21.508Z,6.47
2023-03-06T15:19:00.450Z,6.32
2023-03-06T15:24:35.181Z,6.19
2023-03-06T15:30:34.070Z,6.15
2023-03-06T15:35:57.607Z,6.02
2023-03-06T15:41:23.196Z,5.82
2023-03-06T15:46:44.981Z,5.46
2023-03-06T15:52:07.040Z,5.22
2023-03-06T15:57:31.634Z,4.97
2023-03-06T16:02:53.394Z,4.80
2023-03-06T16:08:15.482Z,4.74
2023-03-06T16:13:36.854Z,4.72
2023-03-06T16:18:58.155Z,4.75
2023-03-06T16:24:19.334Z,4.71
2023-03-06T16:29:40.329Z,4.70
2023-03-06T16:35:01.515Z,4.61
2023-03-06T16:40:24.947Z,4.49
2023-03-06T16:45:46.104Z,4.38
2023-03-06T16:51:07.516Z,4.26
2023-03-06T16:56:29.124Z,4.20
2023-03-06T17:01:50.169Z,4.16
2023-03-06T17:07:11.643Z,4.00
2023-03-06T17:12:32.545Z,3.93
2023-03-06T17:17:53.690Z,3.81
2023-03-06T17:23:14.562Z,3.79
2023-03-06T17:28:36.468Z,3.76
2023-03-06T17:34:00.574Z,3.65
2023-03-06T17:39:21.411Z,3.49
2023-03-06T17:44:42.653Z,3.42
2023-03-06T17:50:04.145Z,3.35
2023-03-06T17:55:27.131Z,3.32
2023-03-06T18:00:48.433Z,3.36
2023-03-06T18:06:09.594Z,3.35
2023-03-06T18:11:30.733Z,3.41
2023-03-06T18:16:51.786Z,3.41
2023-03-06T18:22:12.772Z,3.38
2023-03-06T18:27:34.292Z,3.37
2023-03-06T18:32:55.269Z,3.39
2023-03-06T18:38:16.561Z,3.36
2023-03-06T18:43:37.675Z,3.41
2023-03-06T18:48:58.486Z,3.51
2023-03-06T18:54:19.360Z,3.58
2023-03-06T18:59:40.077Z,3.60
2023-03-06T19:05:00.839Z,3.60
2023-03-06T19:10:22.570Z,3.60
2023-03-06T19:15:48.119Z,3.61
2023-03-06T19:21:14.265Z,3.59
2023-03-06T19:26:35.903Z,3.63
2023-03-06T19:31:57.461Z,3.67
2023-03-06T19:37:18.754Z,3.71
2023-03-06T19:42:39.710Z,3.67
2023-03-06T19:48:01.003Z,3.66
2023-03-06T19:53:23.151Z,3.63
2023-03-06T19:58:43.973Z,3.60
2023-03-06T20:04:04.779Z,3.58
2023-03-06T20:09:26.019Z,3.55
2023-03-06T20:14:47.233Z,3.53
2023-03-06T20:20:09.349Z,3.52
2023-03-06T20:25:30.764Z,3.51
2023-03-06T20:30:51.740Z,3.50
2023-03-06T20:36:32.787Z,3.49
2023-03-06T20:41:53.866Z,3.40
2023-03-06T20:47:14.688Z,3.36
2023-03-06T20:52:35.526Z,3.21
2023-03-06T20:57:56.578Z,3.18
2023-03-06T21:03:17.376Z,3.15
2023-03-06T21:08:38.100Z,3.04
2023-03-06T21:13:58.813Z,2.86
2023-03-06T21:19:20.162Z,2.77
2023-03-06T21:24:41.463Z,2.71
2023-03-06T21:30:02.458Z,2.72
2023-03-06T21:35:23.762Z,2.72
2023-03-06T21:40:45.518Z,2.72
2023-03-06T21:46:07.039Z,2.79
2023-03-06T21:51:28.448Z,2.82
2023-03-06T21:56:49.713Z,2.87
2023-03-06T22:02:10.768Z,2.87
2023-03-06T22:07:34.961Z,2.85
2023-03-06T22:12:55.885Z,2.88
2023-03-06T22:18:16.859Z,2.92
2023-03-06T22:23:41.928Z,2.89
2023-03-06T22:29:05.366Z,2.93
2023-03-06T22:34:26.848Z,2.90
2023-03-06T22:39:47.876Z,2.92
2023-03-06T22:45:09.414Z,2.95
2023-03-06T22:50:32.504Z,2.94
2023-03-06T22:55:53.579Z,2.98
2023-03-06T23:01:16.505Z,2.98
2023-03-06T23:06:39.703Z,3.00
2023-03-06T23:12:00.645Z,2.94
2023-03-06T23:17:40.088Z,2.85
2023-03-06T23:23:19.839Z,2.77
2023-03-06T23:28:40.893Z,2.71
2023-03-06T23:34:02.505Z,2.67
2023-03-06T23:39:23.853Z,2.69
2023-03-06T23:44:45.216Z,2.70
2023-03-06T23:50:07.211Z,2.74
2023-03-06T23:55:27.654Z,2.71
